Time,TemperatureF,DewpointF,PressureIn,WindDirection,WindDirectionDegrees,WindSpeedMPH,WindSpeedGustMPH,Humidity,HourlyPrecipIn,Conditions,Clouds,dailyrainin,SoftwareType,DateUTC
2014-09-15 00:24:00,51.0,48.0,30.18,NE,36,0.0,0.0,90,0.00,,,0.00,,2014-09-15 04:24:00,
2014-09-15 00:53:00,51.0,48.0,30.18,NW,314,0.0,0.0,91,0.00,,,0.00,,2014-09-15 04:53:00,
2014-09-15 01:22:00,50.0,48.0,30.18,NE,47,0.0,0.0,92,0.00,,,0.00,,2014-09-15 05:22:00,
2014-09-15 01:53:00,50.0,48.0,30.18,ENE,65,0.0,0.0,92,0.00,,,0.00,,2014-09-15 05:53:00,
2014-09-15 02:22:00,49.0,47.0,30.18,ENE,65,0.0,0.0,92,0.00,,,0.00,,2014-09-15 06:22:00,
2014-09-15 02:53:00,50.0,48.0,30.18,NE,48,0.0,1.0,93,0.00,,,0.00,,2014-09-15 06:53:00,
2014-09-15 03:22:00,50.0,48.0,30.18,East,99,0.0,0.0,93,0.00,,,0.00,,2014-09-15 07:22:00,
2014-09-15 03:52:00,50.0,48.0,30.18,WNW,298,0.0,1.0,92,0.00,,,0.00,,2014-09-15 07:52:00,
2014-09-15 04:23:00,50.0,47.0,30.18,NW,318,0.0,0.0,90,0.00,,,0.00,,2014-09-15 08:23:00,
2014-09-15 04:53:00,48.0,45.0,30.19,ENE,75,0.0,0.0,91,0.00,,,0.00,,2014-09-15 08:53:00,
2014-09-15 05:22:00,47.0,45.0,30.19,ENE,68,0.0,0.0,92,0.00,,,0.00,,2014-09-15 09:22:00,
2014-09-15 05:54:00,47.0,45.0,30.20,NNW,328,0.0,0.0,93,0.00,,,0.00,,2014-09-15 09:54:00,
2014-09-15 06:13:00,48.0,46.0,30.21,North,6,0.0,0.0,92,0.00,,,0.00,,2014-09-15 10:13:00,
2014-09-15 06:23:00,47.0,45.0,30.21,NW,307,0.0,0.0,92,0.00,,,0.00,,2014-09-15 10:23:00,
2014-09-15 06:53:00,46.0,44.0,30.22,South,180,0.0,0.0,92,0.00,,,0.00,,2014-09-15 10:53:00,
2014-09-15 07:13:00,46.0,44.0,30.22,WNW,285,0.0,0.0,93,0.00,,,0.00,,2014-09-15 11:13:00,
2014-09-15 07:23:00,48.0,46.0,30.22,WNW,287,0.0,0.0,93,0.00,,,0.00,,2014-09-15 11:23:00,
2014-09-15 07:52:00,51.0,47.0,30.21,WNW,291,0.0,0.0,87,0.00,,,0.00,,2014-09-15 11:52:00,
2014-09-15 08:22:00,53.0,48.0,30.22,NW,319,1.0,4.0,83,0.00,,,0.00,,2014-09-15 12:22:00,
2014-09-15 08:53:00,55.0,49.0,30.22,NNE,18,0.0,2.0,79,0.00,,,0.00,,2014-09-15 12:53:00,
2014-09-15 09:22:00,56.0,49.0,30.21,WNW,288,0.0,0.0,77,0.00,,,0.00,,2014-09-15 13:22:00,
2014-09-15 09:52:00,59.0,48.0,30.21,NE,51,1.0,4.0,68,0.00,,,0.00,,2014-09-15 13:52:00,
2014-09-15 10:23:00,61.0,50.0,30.21,North,6,0.0,3.0,67,0.00,,,0.00,,2014-09-15 14:23:00,
2014-09-15 10:53:00,62.0,51.0,30.20,ENE,69,1.0,3.0,68,0.00,,,0.00,,2014-09-15 14:53:00,
2014-09-15 11:03:00,62.0,51.0,30.20,ENE,69,1.0,3.0,68,0.00,,,0.00,,2014-09-15 15:03:00,
2014-09-15 11:23:00,64.0,52.0,30.19,NW,305,0.0,2.0,66,0.00,,,0.00,,2014-09-15 15:23:00,
2014-09-15 11:55:00,64.0,52.0,30.18,West,281,0.0,3.0,64,0.00,,,0.00,,2014-09-15 15:55:00,
2014-09-15 12:13:00,64.0,52.0,30.18,NNW,348,0.0,4.0,64,0.00,,,0.00,,2014-09-15 16:13:00,
2014-09-15 12:24:00,64.0,52.0,30.18,NNW,348,0.0,4.0,64,0.00,,,0.00,,2014-09-15 16:24:00,
2014-09-15 12:55:00,66.0,48.0,30.16,West,262,1.0,3.0,52,0.00,,,0.00,,2014-09-15 16:55:00,
2014-09-15 13:24:00,67.0,49.0,30.16,WSW,243,0.0,4.0,53,0.00,,,0.00,,2014-09-15 17:24:00,
2014-09-15 13:34:00,67.0,49.0,30.16,WSW,243,0.0,4.0,53,0.00,,,0.00,,2014-09-15 17:34:00,
2014-09-15 13:54:00,66.0,48.0,30.14,ENE,65,0.0,3.0,52,0.00,,,0.00,,2014-09-15 17:54:00,
2014-09-15 14:22:00,69.0,48.0,30.14,ENE,60,0.0,5.0,48,0.00,,,0.00,,2014-09-15 18:22:00,
2014-09-15 14:53:00,67.0,48.0,30.13,SSW,194,0.0,3.0,51,0.00,,,0.00,,2014-09-15 18:53:00,
2014-09-15 15:12:00,69.0,49.0,30.13,East,97,0.0,3.0,49,0.00,,,0.00,,2014-09-15 19:12:00,
2014-09-15 15:22:00,66.0,48.0,30.12,WNW,288,0.0,2.0,52,0.00,,,0.00,,2014-09-15 19:22:00,
2014-09-15 15:53:00,68.0,48.0,30.11,WSW,249,1.0,4.0,49,0.00,,,0.00,,2014-09-15 19:53:00,
2014-09-15 16:12:00,68.0,48.0,30.11,WSW,255,1.0,4.0,49,0.00,,,0.00,,2014-09-15 20:12:00,
2014-09-15 16:23:00,68.0,48.0,30.11,WSW,256,1.0,3.0,48,0.00,,,0.00,,2014-09-15 20:23:00,
2014-09-15 16:42:00,67.0,48.0,30.11,WSW,258,0.0,5.0,50,0.00,,,0.00,,2014-09-15 20:42:00,
2014-09-15 16:53:00,67.0,48.0,30.10,WSW,249,1.0,4.0,50,0.00,,,0.00,,2014-09-15 20:53:00,
2014-09-15 17:13:00,66.0,48.0,30.10,West,278,1.0,4.0,53,0.00,,,0.00,,2014-09-15 21:13:00,
2014-09-15 17:22:00,66.0,48.0,30.10,West,278,1.0,4.0,53,0.00,,,0.00,,2014-09-15 21:22:00,
2014-09-15 17:54:00,63.0,51.0,30.10,WSW,256,0.0,2.0,65,0.00,,,0.00,,2014-09-15 21:54:00,
2014-09-15 18:23:00,63.0,50.0,30.11,WSW,253,2.0,5.0,63,0.00,,,0.00,,2014-09-15 22:23:00,
2014-09-15 18:53:00,62.0,51.0,30.11,SW,231,0.0,4.0,66,0.00,,,0.00,,2014-09-15 22:53:00,
2014-09-15 19:22:00,60.0,51.0,30.10,SSE,159,0.0,0.0,71,0.00,,,0.00,,2014-09-15 23:22:00,
2014-09-15 19:33:00,60.0,51.0,30.10,SSE,159,0.0,0.0,71,0.00,,,0.00,,2014-09-15 23:33:00,
2014-09-15 19:53:00,58.0,50.0,30.11,ENE,77,0.0,0.0,76,0.00,,,0.00,,2014-09-15 23:53:00,
2014-09-15 20:22:00,57.0,51.0,30.11,ENE,67,0.0,3.0,81,0.00,,,0.00,,2014-09-16 00:22:00,
2014-09-15 20:42:00,57.0,51.0,30.12,ESE,103,0.0,2.0,81,0.00,,,0.00,,2014-09-16 00:42:00,
2014-09-15 20:52:00,56.0,50.0,30.12,ENE,69,0.0,1.0,81,0.00,,,0.00,,2014-09-16 00:52:00,